KIOW

Details ICAO KIOW (IOW)
Name IOWA CITY MUNI
Region United States
Timezone America/Chicago (UTC-6.0)
Plans Departing 12
Arriving 7
Stats Elevation 668 ft / 204 m (AMSL)
Location 41.638564° -91.546491°
Runways 3
Magnetic Variation 0.812° W
Sunrise 2017-12-18 13:29:32 UTC / 2017-12-18 07:29:32 Local
Sunset 2017-12-18 22:39:00 UTC / 2017-12-18 16:39:00 Local
Advertisement - Login to hide

Runways

ID Width Length Bearing (true) Bearing (mag) Surface Threshold Offset Overrun Length
07 150 ft / 46 m 4,345 ft / 1,325 m 70.78° 71.59° Concrete 0 ft / 0 m 0 ft / 0 m
12 150 ft / 46 m 3,896 ft / 1,187 m 124.77° 125.58° Concrete 0 ft / 0 m 0 ft / 0 m
18 150 ft / 46 m 2,538 ft / 774 m 182.03° 182.84° Concrete 0 ft / 0 m 0 ft / 0 m
25 150 ft / 46 m 4,345 ft / 1,325 m 250.79° 251.60° Concrete 150 ft / 46 m 0 ft / 0 m
30 150 ft / 46 m 3,896 ft / 1,187 m 304.78° 305.59° Concrete 0 ft / 0 m 0 ft / 0 m
36 150 ft / 46 m 2,538 ft / 774 m 2.03° 2.84° Concrete 0 ft / 0 m 0 ft / 0 m

Map

Weather


0- 5 10 15 20 25 30 35+ Temperature / ° C

Clouds and Precipitation
Forecast for 2017-12-18 18:00 UTC. Updated 2 hours ago

Ground ~20,000 ft ~40,000 ft Winds

METAR

KIOW 181852Z AUTO 22011KT 9SM CLR 08/02 A2991 RMK AO2 SLP132 T00780022

TAF

Not found

Frequencies

Recorded 128.07 MHz ASOS
Clearance 119.05 MHz CLNC DEL
Unicom 122.80 MHz CTAF/UNICOM
Approach 119.70 MHz CEDAR RAPIDS APP/DEP
Warning: Do not use this data for real-world aviation or navigation. No guarantee of current accuracy is given.